sensor_id;sensor_type;location;lat;lon;timestamp;P1;durP1;ratioP1;P2;durP2;ratioP2
14169;SDS011;63889;50.596;8.690;2023-08-06T00:02:21;6.93;;;4.10;;
14169;SDS011;63889;50.596;8.690;2023-08-06T00:04:46;6.18;;;3.80;;
14169;SDS011;63889;50.596;8.690;2023-08-06T00:07:12;6.13;;;3.50;;
14169;SDS011;63889;50.596;8.690;2023-08-06T00:09:37;8.63;;;3.63;;
14169;SDS011;63889;50.596;8.690;2023-08-06T00:12:03;7.20;;;3.30;;
14169;SDS011;63889;50.596;8.690;2023-08-06T00:14:29;5.30;;;3.80;;
14169;SDS011;63889;50.596;8.690;2023-08-06T00:16:54;4.30;;;3.65;;
14169;SDS011;63889;50.596;8.690;2023-08-06T00:19:20;4.43;;;3.03;;
14169;SDS011;63889;50.596;8.690;2023-08-06T00:21:45;5.47;;;3.30;;
14169;SDS011;63889;50.596;8.690;2023-08-06T00:26:50;4.25;;;3.40;;
14169;SDS011;63889;50.596;8.690;2023-08-06T00:29:18;8.82;;;3.22;;
14169;SDS011;63889;50.596;8.690;2023-08-06T00:31:43;6.07;;;3.67;;
14169;SDS011;63889;50.596;8.690;2023-08-06T00:34:09;5.38;;;3.38;;
14169;SDS011;63889;50.596;8.690;2023-08-06T00:36:34;5.03;;;3.58;;
14169;SDS011;63889;50.596;8.690;2023-08-06T00:39:02;9.43;;;4.30;;
14169;SDS011;63889;50.596;8.690;2023-08-06T00:41:28;4.85;;;3.45;;
14169;SDS011;63889;50.596;8.690;2023-08-06T00:43:53;9.20;;;3.50;;
14169;SDS011;63889;50.596;8.690;2023-08-06T00:46:21;4.57;;;3.65;;
14169;SDS011;63889;50.596;8.690;2023-08-06T00:48:54;7.35;;;3.40;;
14169;SDS011;63889;50.596;8.690;2023-08-06T00:51:22;4.85;;;3.00;;
14169;SDS011;63889;50.596;8.690;2023-08-06T00:53:57;7.55;;;3.70;;
14169;SDS011;63889;50.596;8.690;2023-08-06T00:56:23;7.70;;;3.63;;
14169;SDS011;63889;50.596;8.690;2023-08-06T00:58:50;6.82;;;4.00;;
14169;SDS011;63889;50.596;8.690;2023-08-06T01:01:16;5.10;;;3.42;;
14169;SDS011;63889;50.596;8.690;2023-08-06T01:03:41;3.38;;;2.83;;
14169;SDS011;63889;50.596;8.690;2023-08-06T01:06:07;9.30;;;4.50;;
14169;SDS011;63889;50.596;8.690;2023-08-06T01:08:43;7.70;;;4.45;;
14169;SDS011;63889;50.596;8.690;2023-08-06T01:11:27;6.85;;;3.70;;
14169;SDS011;63889;50.596;8.690;2023-08-06T01:14:28;7.00;;;3.67;;
14169;SDS011;63889;50.596;8.690;2023-08-06T01:17:01;5.35;;;3.95;;
14169;SDS011;63889;50.596;8.690;2023-08-06T01:19:27;6.75;;;4.45;;
14169;SDS011;63889;50.596;8.690;2023-08-06T01:21:53;4.57;;;3.95;;
14169;SDS011;63889;50.596;8.690;2023-08-06T01:24:18;6.28;;;4.20;;
14169;SDS011;63889;50.596;8.690;2023-08-06T01:29:44;6.30;;;4.07;;
14169;SDS011;63889;50.596;8.690;2023-08-06T01:32:17;5.53;;;3.88;;
14169;SDS011;63889;50.596;8.690;2023-08-06T01:34:45;8.02;;;3.92;;
14169;SDS011;63889;50.596;8.690;2023-08-06T01:37:12;4.82;;;3.35;;
14169;SDS011;63889;50.596;8.690;2023-08-06T01:39:39;8.75;;;4.55;;
14169;SDS011;63889;50.596;8.690;2023-08-06T01:42:07;6.95;;;3.88;;
14169;SDS011;63889;50.596;8.690;2023-08-06T01:44:33;4.85;;;4.07;;
14169;SDS011;63889;50.596;8.690;2023-08-06T01:46:58;6.70;;;3.80;;
14169;SDS011;63889;50.596;8.690;2023-08-06T01:49:24;7.38;;;3.80;;
14169;SDS011;63889;50.596;8.690;2023-08-06T01:51:49;4.60;;;3.45;;
14169;SDS011;63889;50.596;8.690;2023-08-06T01:54:15;6.43;;;3.60;;
14169;SDS011;63889;50.596;8.690;2023-08-06T01:56:41;5.68;;;3.53;;
14169;SDS011;63889;50.596;8.690;2023-08-06T01:59:06;5.28;;;3.58;;
14169;SDS011;63889;50.596;8.690;2023-08-06T02:01:32;4.32;;;3.45;;
14169;SDS011;63889;50.596;8.690;2023-08-06T02:03:57;7.45;;;4.00;;
14169;SDS011;63889;50.596;8.690;2023-08-06T02:06:23;5.85;;;4.18;;
14169;SDS011;63889;50.596;8.690;2023-08-06T02:08:48;6.45;;;4.65;;
14169;SDS011;63889;50.596;8.690;2023-08-06T02:11:13;5.80;;;4.40;;
14169;SDS011;63889;50.596;8.690;2023-08-06T02:13:39;5.68;;;3.60;;
14169;SDS011;63889;50.596;8.690;2023-08-06T02:16:06;4.72;;;3.72;;
14169;SDS011;63889;50.596;8.690;2023-08-06T02:18:33;6.82;;;3.95;;
14169;SDS011;63889;50.596;8.690;2023-08-06T02:20:59;5.63;;;3.92;;
14169;SDS011;63889;50.596;8.690;2023-08-06T02:23:25;6.93;;;3.58;;
14169;SDS011;63889;50.596;8.690;2023-08-06T02:26:01;7.65;;;3.75;;
14169;SDS011;63889;50.596;8.690;2023-08-06T02:28:31;4.43;;;3.35;;
14169;SDS011;63889;50.596;8.690;2023-08-06T02:30:56;4.95;;;3.22;;
14169;SDS011;63889;50.596;8.690;2023-08-06T02:33:22;5.35;;;3.78;;
14169;SDS011;63889;50.596;8.690;2023-08-06T02:35:48;4.47;;;3.40;;
14169;SDS011;63889;50.596;8.690;2023-08-06T02:38:13;6.57;;;4.00;;
14169;SDS011;63889;50.596;8.690;2023-08-06T02:40:45;5.63;;;3.15;;
14169;SDS011;63889;50.596;8.690;2023-08-06T02:43:11;10.38;;;3.83;;
14169;SDS011;63889;50.596;8.690;2023-08-06T02:45:37;6.30;;;3.03;;
14169;SDS011;63889;50.596;8.690;2023-08-06T02:48:02;4.97;;;4.03;;
14169;SDS011;63889;50.596;8.690;2023-08-06T02:50:28;6.28;;;3.55;;
14169;SDS011;63889;50.596;8.690;2023-08-06T02:52:54;4.95;;;3.40;;
14169;SDS011;63889;50.596;8.690;2023-08-06T02:55:19;7.13;;;4.00;;
14169;SDS011;63889;50.596;8.690;2023-08-06T02:57:45;4.85;;;4.18;;
14169;SDS011;63889;50.596;8.690;2023-08-06T03:00:10;6.43;;;3.55;;
14169;SDS011;63889;50.596;8.690;2023-08-06T03:02:36;5.20;;;3.47;;
14169;SDS011;63889;50.596;8.690;2023-08-06T03:05:02;7.10;;;3.75;;
14169;SDS011;63889;50.596;8.690;2023-08-06T03:07:28;11.85;;;3.55;;
14169;SDS011;63889;50.596;8.690;2023-08-06T03:09:54;6.35;;;3.17;;
14169;SDS011;63889;50.596;8.690;2023-08-06T03:12:19;4.25;;;3.20;;
14169;SDS011;63889;50.596;8.690;2023-08-06T03:14:45;3.40;;;2.97;;
14169;SDS011;63889;50.596;8.690;2023-08-06T03:17:11;4.20;;;3.53;;
14169;SDS011;63889;50.596;8.690;2023-08-06T03:19:36;3.58;;;3.13;;
14169;SDS011;63889;50.596;8.690;2023-08-06T03:22:02;8.77;;;3.45;;
14169;SDS011;63889;50.596;8.690;2023-08-06T03:24:27;6.90;;;3.65;;
14169;SDS011;63889;50.596;8.690;2023-08-06T03:26:53;5.30;;;3.45;;
14169;SDS011;63889;50.596;8.690;2023-08-06T03:29:18;6.18;;;3.72;;
14169;SDS011;63889;50.596;8.690;2023-08-06T03:31:45;6.53;;;3.75;;
14169;SDS011;63889;50.596;8.690;2023-08-06T03:34:10;7.85;;;3.78;;
14169;SDS011;63889;50.596;8.690;2023-08-06T03:36:36;7.63;;;3.85;;
14169;SDS011;63889;50.596;8.690;2023-08-06T03:39:01;8.57;;;4.25;;
14169;SDS011;63889;50.596;8.690;2023-08-06T03:41:27;7.50;;;4.70;;
14169;SDS011;63889;50.596;8.690;2023-08-06T03:43:52;9.07;;;4.50;;
14169;SDS011;63889;50.596;8.690;2023-08-06T03:46:18;9.15;;;4.13;;
14169;SDS011;63889;50.596;8.690;2023-08-06T03:48:43;5.25;;;3.92;;
14169;SDS011;63889;50.596;8.690;2023-08-06T03:51:09;5.78;;;3.80;;
14169;SDS011;63889;50.596;8.690;2023-08-06T03:53:34;11.43;;;4.13;;
14169;SDS011;63889;50.596;8.690;2023-08-06T03:56:00;7.05;;;3.85;;
14169;SDS011;63889;50.596;8.690;2023-08-06T03:58:26;6.05;;;3.72;;
14169;SDS011;63889;50.596;8.690;2023-08-06T04:00:58;10.13;;;4.20;;
14169;SDS011;63889;50.596;8.690;2023-08-06T04:03:27;4.90;;;3.58;;
14169;SDS011;63889;50.596;8.690;2023-08-06T04:05:53;7.40;;;4.03;;
14169;SDS011;63889;50.596;8.690;2023-08-06T04:08:19;12.60;;;4.13;;
14169;SDS011;63889;50.596;8.690;2023-08-06T04:10:45;9.50;;;3.92;;
14169;SDS011;63889;50.596;8.690;2023-08-06T04:13:13;8.38;;;4.53;;
14169;SDS011;63889;50.596;8.690;2023-08-06T04:15:39;6.43;;;3.95;;
14169;SDS011;63889;50.596;8.690;2023-08-06T04:18:04;6.35;;;3.95;;
14169;SDS011;63889;50.596;8.690;2023-08-06T04:20:30;9.60;;;3.97;;
14169;SDS011;63889;50.596;8.690;2023-08-06T04:22:59;4.85;;;3.42;;
14169;SDS011;63889;50.596;8.690;2023-08-06T04:25:30;7.88;;;4.03;;
14169;SDS011;63889;50.596;8.690;2023-08-06T04:27:56;8.48;;;3.53;;
14169;SDS011;63889;50.596;8.690;2023-08-06T04:30:21;5.60;;;3.92;;
14169;SDS011;63889;50.596;8.690;2023-08-06T04:32:49;7.25;;;4.00;;
14169;SDS011;63889;50.596;8.690;2023-08-06T04:35:15;6.20;;;3.55;;
14169;SDS011;63889;50.596;8.690;2023-08-06T04:37:40;5.03;;;3.75;;
14169;SDS011;63889;50.596;8.690;2023-08-06T04:40:06;6.00;;;3.90;;
14169;SDS011;63889;50.596;8.690;2023-08-06T04:42:32;6.47;;;4.00;;
14169;SDS011;63889;50.596;8.690;2023-08-06T04:44:58;5.40;;;3.60;;
14169;SDS011;63889;50.596;8.690;2023-08-06T04:47:23;5.65;;;4.30;;
14169;SDS011;63889;50.596;8.690;2023-08-06T04:49:50;7.05;;;4.15;;
14169;SDS011;63889;50.596;8.690;2023-08-06T04:52:16;6.85;;;3.47;;
14169;SDS011;63889;50.596;8.690;2023-08-06T04:54:43;6.82;;;3.42;;
14169;SDS011;63889;50.596;8.690;2023-08-06T04:57:09;7.45;;;3.97;;
14169;SDS011;63889;50.596;8.690;2023-08-06T04:59:34;6.82;;;3.80;;
14169;SDS011;63889;50.596;8.690;2023-08-06T05:02:00;6.22;;;4.22;;
14169;SDS011;63889;50.596;8.690;2023-08-06T05:04:26;9.02;;;3.90;;
14169;SDS011;63889;50.596;8.690;2023-08-06T05:06:52;9.35;;;3.92;;
14169;SDS011;63889;50.596;8.690;2023-08-06T05:09:17;8.00;;;3.80;;
14169;SDS011;63889;50.596;8.690;2023-08-06T05:11:43;5.75;;;3.78;;
14169;SDS011;63889;50.596;8.690;2023-08-06T05:14:08;11.52;;;4.20;;
14169;SDS011;63889;50.596;8.690;2023-08-06T05:16:34;5.93;;;3.65;;
14169;SDS011;63889;50.596;8.690;2023-08-06T05:19:00;7.13;;;4.60;;
14169;SDS011;63889;50.596;8.690;2023-08-06T05:21:25;7.65;;;3.92;;
14169;SDS011;63889;50.596;8.690;2023-08-06T05:23:51;6.85;;;3.50;;
14169;SDS011;63889;50.596;8.690;2023-08-06T05:26:16;9.65;;;4.25;;
14169;SDS011;63889;50.596;8.690;2023-08-06T05:28:44;11.65;;;3.33;;
14169;SDS011;63889;50.596;8.690;2023-08-06T05:31:10;7.72;;;4.35;;
14169;SDS011;63889;50.596;8.690;2023-08-06T05:33:36;4.85;;;3.45;;
14169;SDS011;63889;50.596;8.690;2023-08-06T05:36:01;9.07;;;3.90;;
14169;SDS011;63889;50.596;8.690;2023-08-06T05:38:27;5.50;;;3.88;;
14169;SDS011;63889;50.596;8.690;2023-08-06T05:40:54;6.80;;;3.50;;
14169;SDS011;63889;50.596;8.690;2023-08-06T05:43:20;5.88;;;3.38;;
14169;SDS011;63889;50.596;8.690;2023-08-06T05:45:45;8.70;;;3.70;;
14169;SDS011;63889;50.596;8.690;2023-08-06T05:48:11;7.35;;;3.45;;
14169;SDS011;63889;50.596;8.690;2023-08-06T05:50:37;5.40;;;3.25;;
14169;SDS011;63889;50.596;8.690;2023-08-06T05:53:03;4.80;;;3.20;;
14169;SDS011;63889;50.596;8.690;2023-08-06T05:55:28;5.50;;;3.00;;
14169;SDS011;63889;50.596;8.690;2023-08-06T05:57:54;8.48;;;3.65;;
14169;SDS011;63889;50.596;8.690;2023-08-06T06:00:20;5.03;;;2.78;;
14169;SDS011;63889;50.596;8.690;2023-08-06T06:02:46;5.32;;;3.00;;
14169;SDS011;63889;50.596;8.690;2023-08-06T06:05:12;3.75;;;2.70;;
14169;SDS011;63889;50.596;8.690;2023-08-06T06:07:37;3.90;;;3.00;;
14169;SDS011;63889;50.596;8.690;2023-08-06T06:10:03;4.15;;;3.00;;
14169;SDS011;63889;50.596;8.690;2023-08-06T06:12:29;5.03;;;3.00;;
14169;SDS011;63889;50.596;8.690;2023-08-06T06:14:55;4.70;;;2.72;;
14169;SDS011;63889;50.596;8.690;2023-08-06T06:17:20;7.88;;;3.20;;
14169;SDS011;63889;50.596;8.690;2023-08-06T06:19:46;3.90;;;3.38;;
14169;SDS011;63889;50.596;8.690;2023-08-06T06:22:11;8.43;;;3.20;;
14169;SDS011;63889;50.596;8.690;2023-08-06T06:24:37;8.20;;;3.08;;
14169;SDS011;63889;50.596;8.690;2023-08-06T06:27:03;8.77;;;3.15;;
14169;SDS011;63889;50.596;8.690;2023-08-06T06:29:29;6.43;;;2.78;;
14169;SDS011;63889;50.596;8.690;2023-08-06T06:31:54;6.50;;;3.20;;
14169;SDS011;63889;50.596;8.690;2023-08-06T06:34:20;3.85;;;2.53;;
14169;SDS011;63889;50.596;8.690;2023-08-06T06:36:45;5.40;;;2.65;;
14169;SDS011;63889;50.596;8.690;2023-08-06T06:39:11;3.40;;;2.10;;
14169;SDS011;63889;50.596;8.690;2023-08-06T06:41:37;5.82;;;2.85;;
14169;SDS011;63889;50.596;8.690;2023-08-06T06:44:02;6.90;;;2.45;;
14169;SDS011;63889;50.596;8.690;2023-08-06T06:46:28;4.35;;;2.05;;
14169;SDS011;63889;50.596;8.690;2023-08-06T06:48:53;6.75;;;2.63;;
14169;SDS011;63889;50.596;8.690;2023-08-06T06:51:19;5.20;;;2.50;;
14169;SDS011;63889;50.596;8.690;2023-08-06T06:53:44;6.25;;;3.38;;
14169;SDS011;63889;50.596;8.690;2023-08-06T06:56:10;3.47;;;2.17;;
14169;SDS011;63889;50.596;8.690;2023-08-06T06:58:35;4.93;;;2.63;;
14169;SDS011;63889;50.596;8.690;2023-08-06T07:01:02;3.90;;;2.38;;
14169;SDS011;63889;50.596;8.690;2023-08-06T07:03:27;5.47;;;2.40;;
14169;SDS011;63889;50.596;8.690;2023-08-06T07:05:56;6.88;;;2.50;;
14169;SDS011;63889;50.596;8.690;2023-08-06T07:08:23;6.47;;;2.43;;
14169;SDS011;63889;50.596;8.690;2023-08-06T07:10:49;3.22;;;1.83;;
14169;SDS011;63889;50.596;8.690;2023-08-06T07:13:14;3.08;;;2.00;;
14169;SDS011;63889;50.596;8.690;2023-08-06T07:15:56;3.80;;;1.75;;
14169;SDS011;63889;50.596;8.690;2023-08-06T07:18:22;6.13;;;2.17;;
14169;SDS011;63889;50.596;8.690;2023-08-06T07:20:51;1.90;;;1.70;;
14169;SDS011;63889;50.596;8.690;2023-08-06T07:23:20;2.42;;;1.50;;
14169;SDS011;63889;50.596;8.690;2023-08-06T07:25:46;4.57;;;1.40;;
14169;SDS011;63889;50.596;8.690;2023-08-06T07:28:12;3.17;;;1.20;;
14169;SDS011;63889;50.596;8.690;2023-08-06T07:30:39;5.47;;;1.20;;
14169;SDS011;63889;50.596;8.690;2023-08-06T07:33:05;0.73;;;0.60;;
14169;SDS011;63889;50.596;8.690;2023-08-06T07:35:31;0.88;;;0.60;;
14169;SDS011;63889;50.596;8.690;2023-08-06T07:37:57;2.22;;;1.20;;
14169;SDS011;63889;50.596;8.690;2023-08-06T07:40:22;7.70;;;1.10;;
14169;SDS011;63889;50.596;8.690;2023-08-06T07:42:48;1.25;;;0.85;;
14169;SDS011;63889;50.596;8.690;2023-08-06T07:45:13;1.50;;;0.90;;
14169;SDS011;63889;50.596;8.690;2023-08-06T07:47:39;0.43;;;0.38;;
14169;SDS011;63889;50.596;8.690;2023-08-06T07:50:05;0.50;;;0.43;;
14169;SDS011;63889;50.596;8.690;2023-08-06T07:52:31;1.13;;;0.60;;
14169;SDS011;63889;50.596;8.690;2023-08-06T07:54:57;0.57;;;0.57;;
14169;SDS011;63889;50.596;8.690;2023-08-06T07:57:23;1.77;;;0.57;;
14169;SDS011;63889;50.596;8.690;2023-08-06T07:59:49;0.60;;;0.60;;
14169;SDS011;63889;50.596;8.690;2023-08-06T08:02:14;0.52;;;0.52;;
14169;SDS011;63889;50.596;8.690;2023-08-06T08:04:40;0.93;;;0.75;;
14169;SDS011;63889;50.596;8.690;2023-08-06T08:07:05;0.90;;;0.88;;
14169;SDS011;63889;50.596;8.690;2023-08-06T08:09:31;2.33;;;1.48;;
14169;SDS011;63889;50.596;8.690;2023-08-06T08:11:56;1.08;;;0.90;;
14169;SDS011;63889;50.596;8.690;2023-08-06T08:14:22;1.13;;;0.90;;
14169;SDS011;63889;50.596;8.690;2023-08-06T08:16:48;1.00;;;0.50;;
14169;SDS011;63889;50.596;8.690;2023-08-06T08:19:13;2.00;;;0.55;;
14169;SDS011;63889;50.596;8.690;2023-08-06T08:21:39;0.25;;;0.22;;
14169;SDS011;63889;50.596;8.690;2023-08-06T08:24:04;1.42;;;0.13;;
14169;SDS011;63889;50.596;8.690;2023-08-06T08:26:30;0.40;;;0.30;;
14169;SDS011;63889;50.596;8.690;2023-08-06T08:29:09;1.20;;;0.32;;
14169;SDS011;63889;50.596;8.690;2023-08-06T08:34:17;0.95;;;0.35;;
14169;SDS011;63889;50.596;8.690;2023-08-06T08:36:43;3.95;;;0.52;;
14169;SDS011;63889;50.596;8.690;2023-08-06T08:39:08;0.77;;;0.32;;
14169;SDS011;63889;50.596;8.690;2023-08-06T08:41:35;0.60;;;0.40;;
14169;SDS011;63889;50.596;8.690;2023-08-06T08:44:02;0.50;;;0.40;;
14169;SDS011;63889;50.596;8.690;2023-08-06T08:46:28;0.70;;;0.52;;
14169;SDS011;63889;50.596;8.690;2023-08-06T08:48:55;0.30;;;0.30;;
14169;SDS011;63889;50.596;8.690;2023-08-06T08:51:24;1.63;;;0.50;;
14169;SDS011;63889;50.596;8.690;2023-08-06T08:53:52;0.70;;;0.40;;
14169;SDS011;63889;50.596;8.690;2023-08-06T08:56:21;0.25;;;0.25;;
14169;SDS011;63889;50.596;8.690;2023-08-06T08:58:47;1.30;;;0.55;;
14169;SDS011;63889;50.596;8.690;2023-08-06T09:01:14;0.20;;;0.20;;
14169;SDS011;63889;50.596;8.690;2023-08-06T09:03:40;0.40;;;0.40;;
14169;SDS011;63889;50.596;8.690;2023-08-06T09:06:08;2.83;;;0.47;;
14169;SDS011;63889;50.596;8.690;2023-08-06T09:08:37;0.40;;;0.40;;
14169;SDS011;63889;50.596;8.690;2023-08-06T09:11:07;0.40;;;0.30;;
14169;SDS011;63889;50.596;8.690;2023-08-06T09:13:35;0.73;;;0.30;;
14169;SDS011;63889;50.596;8.690;2023-08-06T09:16:03;0.50;;;0.50;;
14169;SDS011;63889;50.596;8.690;2023-08-06T09:18:29;0.73;;;0.43;;
14169;SDS011;63889;50.596;8.690;2023-08-06T09:20:55;1.60;;;0.60;;
14169;SDS011;63889;50.596;8.690;2023-08-06T09:23:21;0.52;;;0.40;;
14169;SDS011;63889;50.596;8.690;2023-08-06T09:25:54;1.48;;;0.50;;
14169;SDS011;63889;50.596;8.690;2023-08-06T09:28:19;0.93;;;0.70;;
14169;SDS011;63889;50.596;8.690;2023-08-06T09:30:46;1.33;;;0.60;;
14169;SDS011;63889;50.596;8.690;2023-08-06T09:33:14;0.70;;;0.60;;
14169;SDS011;63889;50.596;8.690;2023-08-06T09:35:45;0.50;;;0.40;;
14169;SDS011;63889;50.596;8.690;2023-08-06T09:38:12;0.75;;;0.60;;
14169;SDS011;63889;50.596;8.690;2023-08-06T09:40:38;3.10;;;0.90;;
14169;SDS011;63889;50.596;8.690;2023-08-06T09:43:05;1.17;;;0.80;;
14169;SDS011;63889;50.596;8.690;2023-08-06T09:47:58;1.25;;;0.85;;
14169;SDS011;63889;50.596;8.690;2023-08-06T09:50:31;0.82;;;0.60;;
14169;SDS011;63889;50.596;8.690;2023-08-06T09:53:13;1.15;;;0.70;;
14169;SDS011;63889;50.596;8.690;2023-08-06T09:55:39;2.53;;;0.95;;
14169;SDS011;63889;50.596;8.690;2023-08-06T09:58:05;0.55;;;0.55;;
14169;SDS011;63889;50.596;8.690;2023-08-06T10:00:31;1.08;;;0.65;;
14169;SDS011;63889;50.596;8.690;2023-08-06T10:02:59;1.85;;;0.70;;
14169;SDS011;63889;50.596;8.690;2023-08-06T10:05:25;0.70;;;0.40;;
14169;SDS011;63889;50.596;8.690;2023-08-06T10:07:52;1.45;;;0.70;;
14169;SDS011;63889;50.596;8.690;2023-08-06T10:10:18;1.38;;;0.75;;
14169;SDS011;63889;50.596;8.690;2023-08-06T10:12:48;1.38;;;1.05;;
14169;SDS011;63889;50.596;8.690;2023-08-06T10:15:17;1.25;;;0.75;;
14169;SDS011;63889;50.596;8.690;2023-08-06T10:17:47;1.00;;;0.85;;
14169;SDS011;63889;50.596;8.690;2023-08-06T10:20:14;0.50;;;0.43;;
14169;SDS011;63889;50.596;8.690;2023-08-06T10:22:43;0.50;;;0.50;;
14169;SDS011;63889;50.596;8.690;2023-08-06T10:25:15;0.90;;;0.47;;
14169;SDS011;63889;50.596;8.690;2023-08-06T10:32:59;0.80;;;0.43;;
14169;SDS011;63889;50.596;8.690;2023-08-06T10:35:36;0.77;;;0.40;;
14169;SDS011;63889;50.596;8.690;2023-08-06T10:40:36;1.23;;;0.30;;
14169;SDS011;63889;50.596;8.690;2023-08-06T10:43:04;0.90;;;0.40;;
14169;SDS011;63889;50.596;8.690;2023-08-06T10:45:34;0.88;;;0.50;;
14169;SDS011;63889;50.596;8.690;2023-08-06T10:48:00;1.05;;;0.40;;
14169;SDS011;63889;50.596;8.690;2023-08-06T10:50:25;0.88;;;0.30;;
14169;SDS011;63889;50.596;8.690;2023-08-06T10:52:51;2.95;;;0.80;;
14169;SDS011;63889;50.596;8.690;2023-08-06T10:55:24;1.65;;;0.82;;
14169;SDS011;63889;50.596;8.690;2023-08-06T10:57:54;1.77;;;1.10;;
14169;SDS011;63889;50.596;8.690;2023-08-06T11:00:21;3.47;;;1.50;;
14169;SDS011;63889;50.596;8.690;2023-08-06T11:02:48;1.05;;;0.88;;
14169;SDS011;63889;50.596;8.690;2023-08-06T11:05:14;1.00;;;0.60;;
14169;SDS011;63889;50.596;8.690;2023-08-06T11:07:40;0.73;;;0.73;;
14169;SDS011;63889;50.596;8.690;2023-08-06T11:10:12;0.95;;;0.80;;
14169;SDS011;63889;50.596;8.690;2023-08-06T11:12:38;0.60;;;0.60;;
14169;SDS011;63889;50.596;8.690;2023-08-06T11:15:04;0.85;;;0.68;;
14169;SDS011;63889;50.596;8.690;2023-08-06T11:17:31;2.30;;;0.77;;
14169;SDS011;63889;50.596;8.690;2023-08-06T11:20:02;1.23;;;0.70;;
14169;SDS011;63889;50.596;8.690;2023-08-06T11:22:29;1.33;;;0.77;;
14169;SDS011;63889;50.596;8.690;2023-08-06T11:24:55;1.05;;;0.60;;
14169;SDS011;63889;50.596;8.690;2023-08-06T11:27:21;0.50;;;0.50;;
14169;SDS011;63889;50.596;8.690;2023-08-06T11:29:46;0.60;;;0.50;;
14169;SDS011;63889;50.596;8.690;2023-08-06T11:32:12;1.40;;;0.40;;
14169;SDS011;63889;50.596;8.690;2023-08-06T11:34:38;0.30;;;0.30;;
14169;SDS011;63889;50.596;8.690;2023-08-06T11:37:05;0.57;;;0.40;;
14169;SDS011;63889;50.596;8.690;2023-08-06T11:39:34;0.35;;;0.30;;
14169;SDS011;63889;50.596;8.690;2023-08-06T11:42:05;0.40;;;0.30;;
14169;SDS011;63889;50.596;8.690;2023-08-06T11:44:31;0.52;;;0.20;;
14169;SDS011;63889;50.596;8.690;2023-08-06T11:47:00;0.30;;;0.30;;
14169;SDS011;63889;50.596;8.690;2023-08-06T11:49:37;0.47;;;0.30;;
14169;SDS011;63889;50.596;8.690;2023-08-06T11:52:38;0.95;;;0.47;;
14169;SDS011;63889;50.596;8.690;2023-08-06T11:55:04;0.80;;;0.70;;
14169;SDS011;63889;50.596;8.690;2023-08-06T11:57:33;0.75;;;0.32;;
14169;SDS011;63889;50.596;8.690;2023-08-06T12:00:09;1.17;;;0.63;;
14169;SDS011;63889;50.596;8.690;2023-08-06T12:02:38;1.88;;;1.10;;
14169;SDS011;63889;50.596;8.690;2023-08-06T12:07:40;3.70;;;1.20;;
14169;SDS011;63889;50.596;8.690;2023-08-06T12:10:07;1.90;;;1.02;;
14169;SDS011;63889;50.596;8.690;2023-08-06T12:12:33;1.90;;;0.98;;
14169;SDS011;63889;50.596;8.690;2023-08-06T12:14:59;8.02;;;1.38;;
14169;SDS011;63889;50.596;8.690;2023-08-06T12:17:25;2.33;;;0.90;;
14169;SDS011;63889;50.596;8.690;2023-08-06T12:19:51;2.15;;;0.80;;
14169;SDS011;63889;50.596;8.690;2023-08-06T12:22:17;0.47;;;0.47;;
14169;SDS011;63889;50.596;8.690;2023-08-06T12:24:43;0.40;;;0.40;;
14169;SDS011;63889;50.596;8.690;2023-08-06T12:27:10;0.90;;;0.40;;
14169;SDS011;63889;50.596;8.690;2023-08-06T12:29:46;2.30;;;0.70;;
14169;SDS011;63889;50.596;8.690;2023-08-06T12:32:13;0.82;;;0.45;;
14169;SDS011;63889;50.596;8.690;2023-08-06T12:34:39;0.73;;;0.40;;
14169;SDS011;63889;50.596;8.690;2023-08-06T12:37:08;0.75;;;0.40;;
14169;SDS011;63889;50.596;8.690;2023-08-06T12:39:34;1.58;;;0.98;;
14169;SDS011;63889;50.596;8.690;2023-08-06T12:42:01;4.88;;;1.10;;
14169;SDS011;63889;50.596;8.690;2023-08-06T12:44:28;1.60;;;0.68;;
14169;SDS011;63889;50.596;8.690;2023-08-06T12:46:53;2.17;;;1.10;;
14169;SDS011;63889;50.596;8.690;2023-08-06T12:49:20;6.65;;;1.30;;
14169;SDS011;63889;50.596;8.690;2023-08-06T12:51:46;2.80;;;1.15;;
14169;SDS011;63889;50.596;8.690;2023-08-06T12:54:16;2.65;;;1.50;;
14169;SDS011;63889;50.596;8.690;2023-08-06T12:56:45;3.70;;;1.05;;
14169;SDS011;63889;50.596;8.690;2023-08-06T12:59:13;2.30;;;1.23;;
14169;SDS011;63889;50.596;8.690;2023-08-06T13:01:39;1.83;;;0.90;;
14169;SDS011;63889;50.596;8.690;2023-08-06T13:04:05;1.35;;;0.70;;
14169;SDS011;63889;50.596;8.690;2023-08-06T13:06:31;0.88;;;0.70;;
14169;SDS011;63889;50.596;8.690;2023-08-06T13:09:01;0.95;;;0.80;;
14169;SDS011;63889;50.596;8.690;2023-08-06T13:11:27;3.70;;;0.88;;
14169;SDS011;63889;50.596;8.690;2023-08-06T13:13:52;3.35;;;1.17;;
14169;SDS011;63889;50.596;8.690;2023-08-06T13:16:18;1.80;;;1.10;;
14169;SDS011;63889;50.596;8.690;2023-08-06T13:18:43;1.33;;;0.60;;
14169;SDS011;63889;50.596;8.690;2023-08-06T13:21:09;1.20;;;0.70;;
14169;SDS011;63889;50.596;8.690;2023-08-06T13:23:34;1.15;;;0.70;;
14169;SDS011;63889;50.596;8.690;2023-08-06T13:26:01;0.90;;;0.60;;
14169;SDS011;63889;50.596;8.690;2023-08-06T13:28:28;0.47;;;0.47;;
14169;SDS011;63889;50.596;8.690;2023-08-06T13:30:53;1.48;;;0.80;;
14169;SDS011;63889;50.596;8.690;2023-08-06T13:33:19;0.70;;;0.70;;
14169;SDS011;63889;50.596;8.690;2023-08-06T13:35:44;3.28;;;1.00;;
14169;SDS011;63889;50.596;8.690;2023-08-06T13:38:10;2.17;;;0.73;;
14169;SDS011;63889;50.596;8.690;2023-08-06T13:40:35;0.50;;;0.50;;
14169;SDS011;63889;50.596;8.690;2023-08-06T13:43:01;2.13;;;0.80;;
14169;SDS011;63889;50.596;8.690;2023-08-06T13:45:26;0.80;;;0.80;;
14169;SDS011;63889;50.596;8.690;2023-08-06T13:47:53;2.45;;;0.50;;
14169;SDS011;63889;50.596;8.690;2023-08-06T13:50:20;2.33;;;0.70;;
14169;SDS011;63889;50.596;8.690;2023-08-06T13:52:47;0.47;;;0.47;;
14169;SDS011;63889;50.596;8.690;2023-08-06T13:55:12;1.38;;;1.05;;
14169;SDS011;63889;50.596;8.690;2023-08-06T13:57:38;1.35;;;1.00;;
14169;SDS011;63889;50.596;8.690;2023-08-06T14:00:03;1.45;;;0.68;;
14169;SDS011;63889;50.596;8.690;2023-08-06T14:02:30;1.95;;;0.88;;
14169;SDS011;63889;50.596;8.690;2023-08-06T14:04:56;0.93;;;0.93;;
14169;SDS011;63889;50.596;8.690;2023-08-06T14:07:22;3.47;;;1.58;;
14169;SDS011;63889;50.596;8.690;2023-08-06T14:09:47;1.45;;;1.35;;
14169;SDS011;63889;50.596;8.690;2023-08-06T14:12:14;2.38;;;1.85;;
14169;SDS011;63889;50.596;8.690;2023-08-06T14:14:40;3.35;;;1.95;;
14169;SDS011;63889;50.596;8.690;2023-08-06T14:17:05;1.60;;;1.50;;
14169;SDS011;63889;50.596;8.690;2023-08-06T14:19:31;2.08;;;1.88;;
14169;SDS011;63889;50.596;8.690;2023-08-06T14:21:56;2.78;;;1.55;;
14169;SDS011;63889;50.596;8.690;2023-08-06T14:24:22;1.60;;;1.50;;
14169;SDS011;63889;50.596;8.690;2023-08-06T14:26:48;1.48;;;1.20;;
14169;SDS011;63889;50.596;8.690;2023-08-06T14:29:13;5.28;;;1.70;;
14169;SDS011;63889;50.596;8.690;2023-08-06T14:31:39;1.55;;;1.25;;
14169;SDS011;63889;50.596;8.690;2023-08-06T14:34:05;1.73;;;1.10;;
14169;SDS011;63889;50.596;8.690;2023-08-06T14:36:31;2.92;;;0.90;;
14169;SDS011;63889;50.596;8.690;2023-08-06T14:38:57;1.65;;;1.00;;
14169;SDS011;63889;50.596;8.690;2023-08-06T14:41:23;2.10;;;1.02;;
14169;SDS011;63889;50.596;8.690;2023-08-06T14:43:49;3.00;;;1.15;;
14169;SDS011;63889;50.596;8.690;2023-08-06T14:46:15;2.97;;;0.80;;
14169;SDS011;63889;50.596;8.690;2023-08-06T14:48:40;0.98;;;0.88;;
14169;SDS011;63889;50.596;8.690;2023-08-06T14:51:07;1.20;;;1.10;;
14169;SDS011;63889;50.596;8.690;2023-08-06T14:53:33;2.03;;;0.60;;
14169;SDS011;63889;50.596;8.690;2023-08-06T14:55:58;1.13;;;1.02;;
14169;SDS011;63889;50.596;8.690;2023-08-06T14:58:24;1.48;;;0.85;;
14169;SDS011;63889;50.596;8.690;2023-08-06T15:00:49;1.75;;;0.77;;
14169;SDS011;63889;50.596;8.690;2023-08-06T15:03:15;1.50;;;0.90;;
14169;SDS011;63889;50.596;8.690;2023-08-06T15:05:43;2.25;;;1.00;;
14169;SDS011;63889;50.596;8.690;2023-08-06T15:08:09;2.08;;;0.65;;